Time;durP1;ratioP1;P1;durP2;ratioP2;P2;SDS_P1;SDS_P2;PMS_P1;PMS_P2;Temp;Humidity;BMP_temperature;BMP_pressure;BME280_temperature;BME280_humidity;BME280_pressure;Samples;Min_cycle;Max_cycle;Signal;HPM_P1;HPM_P2
2023/12/28 00:00:26;;;;;;;132.18;58.38;;;18.80;64.10;;;;;;5045420;28;20507;-43
2023/12/28 00:02:52;;;;;;;131.80;57.83;;;18.80;64.10;;;;;;5040816;28;20596;-43
2023/12/28 00:05:18;;;;;;;131.48;58.22;;;18.80;64.30;;;;;;5043637;28;20635;-43
2023/12/28 00:07:43;;;;;;;131.10;58.50;;;18.70;64.50;;;;;;5040839;28;20183;-42
2023/12/28 00:10:09;;;;;;;131.18;58.10;;;18.60;64.40;;;;;;5042938;28;20049;-43
2023/12/28 00:12:35;;;;;;;129.70;57.25;;;18.70;64.70;;;;;;5041210;28;20359;-45
2023/12/28 00:15:01;;;;;;;131.48;58.05;;;18.60;64.30;;;;;;5043227;28;20065;-42
2023/12/28 00:17:26;;;;;;;132.80;58.47;;;18.70;64.60;;;;;;5042221;28;20056;-44
2023/12/28 00:19:52;;;;;;;131.23;57.78;;;18.60;64.70;;;;;;5043009;28;20139;-42
2023/12/28 00:22:18;;;;;;;131.35;57.88;;;18.60;64.80;;;;;;5042488;28;20069;-42
2023/12/28 00:24:43;;;;;;;130.20;57.53;;;18.50;65.00;;;;;;5041984;28;20040;-44
2023/12/28 00:27:09;;;;;;;131.02;57.53;;;18.50;65.10;;;;;;5041987;28;20078;-41
2023/12/28 00:29:38;;;;;;;131.00;57.63;;;18.50;65.20;;;;;;5040186;28;20049;-41
2023/12/28 00:32:07;;;;;;;130.75;57.40;;;18.40;65.10;;;;;;5041611;28;20046;-46
2023/12/28 00:34:33;;;;;;;130.25;57.63;;;18.40;65.30;;;;;;5043938;28;20076;-44
2023/12/28 00:36:58;;;;;;;131.18;57.92;;;18.40;65.20;;;;;;5040356;28;20124;-44
2023/12/28 00:39:24;;;;;;;131.48;57.80;;;18.40;65.40;;;;;;5041104;28;20042;-45
2023/12/28 00:41:50;;;;;;;130.68;57.92;;;18.30;65.50;;;;;;5038879;28;20040;-45
2023/12/28 00:44:15;;;;;;;129.63;56.85;;;18.30;65.70;;;;;;5043674;28;20041;-44
2023/12/28 00:46:42;;;;;;;130.40;58.00;;;18.30;65.80;;;;;;5046255;28;20042;-47
2023/12/28 00:49:08;;;;;;;129.45;57.30;;;18.20;65.70;;;;;;5039399;28;20538;-44
2023/12/28 00:51:34;;;;;;;130.23;57.65;;;18.20;65.70;;;;;;5041178;28;20053;-44
2023/12/28 00:53:59;;;;;;;128.88;57.10;;;18.20;65.80;;;;;;5040872;28;20199;-42
2023/12/28 00:56:25;;;;;;;129.80;57.63;;;18.20;65.90;;;;;;5037407;28;20053;-42
2023/12/28 00:58:51;;;;;;;130.48;57.67;;;18.10;65.90;;;;;;5051054;28;20068;-48
2023/12/28 01:01:16;;;;;;;129.25;57.20;;;18.20;66.00;;;;;;5042187;28;20037;-44
2023/12/28 01:03:42;;;;;;;130.35;58.13;;;18.10;66.10;;;;;;5043092;28;20519;-46
2023/12/28 01:06:08;;;;;;;129.23;57.30;;;18.10;66.10;;;;;;5039298;28;20123;-42
2023/12/28 01:08:33;;;;;;;127.18;56.15;;;18.10;66.10;;;;;;5039902;28;20049;-45
2023/12/28 01:11:00;;;;;;;129.32;57.40;;;18.10;66.10;;;;;;5039989;28;20045;-46
2023/12/28 01:13:28;;;;;;;130.80;57.83;;;18.00;66.20;;;;;;5041348;28;20088;-46
2023/12/28 01:15:54;;;;;;;130.50;57.80;;;18.00;66.20;;;;;;5043458;28;20797;-45
2023/12/28 01:18:20;;;;;;;129.98;57.72;;;18.00;66.30;;;;;;5044161;28;20542;-42
2023/12/28 01:20:46;;;;;;;130.45;57.55;;;18.00;66.40;;;;;;5042244;28;20049;-43
2023/12/28 01:23:13;;;;;;;129.63;56.78;;;18.00;66.40;;;;;;5038087;28;20199;-46
2023/12/28 01:25:38;;;;;;;130.13;57.22;;;18.00;66.40;;;;;;5040919;28;20917;-45
2023/12/28 01:28:04;;;;;;;130.15;57.38;;;17.90;66.40;;;;;;5044065;28;20125;-42
2023/12/28 01:30:30;;;;;;;129.20;57.10;;;17.90;66.60;;;;;;5039710;28;20049;-45
2023/12/28 01:32:56;;;;;;;129.38;57.72;;;17.90;66.60;;;;;;5039966;28;20061;-44
2023/12/28 01:35:22;;;;;;;128.73;57.10;;;17.90;66.60;;;;;;5042698;28;20136;-42
2023/12/28 01:37:47;;;;;;;129.23;57.53;;;17.90;66.70;;;;;;5037993;28;20069;-44
2023/12/28 01:40:14;;;;;;;129.38;57.25;;;17.90;66.60;;;;;;5039212;28;20060;-45
2023/12/28 01:42:40;;;;;;;129.35;57.22;;;17.80;66.60;;;;;;5039080;28;20038;-43
2023/12/28 01:45:06;;;;;;;130.98;57.47;;;17.80;66.60;;;;;;5041780;28;20046;-43
2023/12/28 01:47:32;;;;;;;127.15;56.58;;;17.80;66.80;;;;;;5040959;28;20564;-42
2023/12/28 01:49:59;;;;;;;130.45;57.60;;;17.80;66.90;;;;;;5039679;28;20148;-46
2023/12/28 01:52:25;;;;;;;129.73;57.88;;;17.80;66.90;;;;;;5038468;28;20640;-42
2023/12/28 01:54:51;;;;;;;129.00;57.35;;;17.70;66.90;;;;;;5036108;28;20065;-43
2023/12/28 01:57:17;;;;;;;130.63;57.80;;;17.80;67.10;;;;;;5038388;28;20044;-41
2023/12/28 01:59:43;;;;;;;128.95;57.22;;;17.70;67.00;;;;;;5041529;28;20037;-44
2023/12/28 02:02:10;;;;;;;129.27;57.40;;;17.70;67.00;;;;;;5037919;28;20583;-45
2023/12/28 02:04:36;;;;;;;128.20;56.78;;;17.70;67.10;;;;;;5035967;28;20042;-43
2023/12/28 02:07:02;;;;;;;129.93;57.30;;;17.70;67.20;;;;;;5039007;28;20063;-42
2023/12/28 02:09:30;;;;;;;129.25;57.35;;;17.70;67.00;;;;;;5037946;28;20033;-42
2023/12/28 02:11:56;;;;;;;130.02;58.05;;;17.70;67.20;;;;;;5032243;28;20139;-44
2023/12/28 02:14:22;;;;;;;127.93;57.35;;;17.60;67.30;;;;;;5027251;28;20045;-44
2023/12/28 02:17:07;;;;;;;128.88;57.40;;;17.60;67.30;;;;;;5033576;28;20143;-45
2023/12/28 02:19:40;;;;;;;129.65;57.65;;;17.60;67.30;;;;;;5029858;28;20045;-44
2023/12/28 02:22:09;;;;;;;128.15;56.92;;;17.60;67.30;;;;;;5033370;28;20570;-42
2023/12/28 02:24:56;;;;;;;129.88;57.53;;;17.60;67.50;;;;;;5027789;28;20050;-42
2023/12/28 02:27:22;;;;;;;128.40;57.60;;;17.60;67.50;;;;;;5033688;28;20038;-42
2023/12/28 02:29:48;;;;;;;127.25;56.72;;;17.60;67.60;;;;;;5030717;28;20048;-42
2023/12/28 02:32:16;;;;;;;128.68;57.58;;;17.50;67.50;;;;;;5026565;28;20037;-44
2023/12/28 02:34:44;;;;;;;127.90;56.90;;;17.60;67.60;;;;;;5030883;28;20037;-43
2023/12/28 02:37:13;;;;;;;127.85;56.85;;;17.60;67.60;;;;;;5030888;28;20041;-43
2023/12/28 02:39:41;;;;;;;128.57;57.40;;;17.60;67.70;;;;;;5033169;28;20040;-42
2023/12/28 02:42:06;;;;;;;128.82;57.47;;;17.50;67.80;;;;;;5027579;28;20038;-43
2023/12/28 02:44:32;;;;;;;129.20;57.45;;;17.50;67.80;;;;;;5027332;28;20029;-45
2023/12/28 02:46:57;;;;;;;127.63;56.97;;;17.50;67.70;;;;;;5034101;28;20136;-45
2023/12/28 02:49:23;;;;;;;128.88;57.35;;;17.50;67.80;;;;;;5031778;28;20034;-45
2023/12/28 02:51:49;;;;;;;127.28;56.63;;;17.50;67.80;;;;;;5025421;28;20144;-42
2023/12/28 02:54:14;;;;;;;129.05;57.53;;;17.50;67.90;;;;;;5027635;28;20096;-43
2023/12/28 02:56:41;;;;;;;127.32;57.03;;;17.40;67.80;;;;;;5026975;28;20203;-42
2023/12/28 02:59:06;;;;;;;129.02;57.78;;;17.40;67.90;;;;;;5027293;28;20495;-45
2023/12/28 03:01:32;;;;;;;128.13;57.13;;;17.40;67.90;;;;;;5027219;28;20085;-44
2023/12/28 03:03:58;;;;;;;128.85;57.80;;;17.40;68.00;;;;;;5031335;28;20112;-42
2023/12/28 03:06:23;;;;;;;128.80;57.42;;;17.40;68.00;;;;;;5026920;28;20536;-44
2023/12/28 03:08:49;;;;;;;128.82;57.55;;;17.40;68.10;;;;;;5027677;28;20041;-42
2023/12/28 03:11:16;;;;;;;128.93;56.92;;;17.40;68.10;;;;;;5031411;28;20056;-45
2023/12/28 03:13:41;;;;;;;128.75;56.90;;;17.40;68.10;;;;;;5039631;28;20042;-47
2023/12/28 03:16:07;;;;;;;128.55;57.35;;;17.40;68.10;;;;;;5038795;28;20050;-46
2023/12/28 03:18:33;;;;;;;129.23;57.33;;;17.40;68.20;;;;;;5038049;28;20321;-44
2023/12/28 03:21:00;;;;;;;129.45;57.10;;;17.40;68.20;;;;;;5029166;28;20096;-46
2023/12/28 03:23:25;;;;;;;128.55;57.30;;;17.30;68.10;;;;;;5029210;28;20042;-45
2023/12/28 03:25:51;;;;;;;127.45;56.67;;;17.40;68.30;;;;;;5030579;28;20734;-43
2023/12/28 03:28:17;;;;;;;128.25;57.28;;;17.30;68.20;;;;;;5026818;28;20080;-44
2023/12/28 03:30:42;;;;;;;129.57;57.63;;;17.30;68.40;;;;;;5027736;28;20763;-44
2023/12/28 03:33:08;;;;;;;127.85;57.20;;;17.30;68.40;;;;;;5026077;28;20042;-44
2023/12/28 03:35:33;;;;;;;128.23;57.30;;;17.30;68.50;;;;;;5030118;28;20553;-44
2023/12/28 03:38:00;;;;;;;128.90;57.45;;;17.30;68.40;;;;;;5020589;28;20125;-46
2023/12/28 03:40:25;;;;;;;129.00;57.05;;;17.30;68.50;;;;;;5028315;28;20038;-42
2023/12/28 03:42:51;;;;;;;127.95;57.03;;;17.30;68.50;;;;;;5028031;28;20042;-45
2023/12/28 03:45:17;;;;;;;127.72;56.85;;;17.30;68.50;;;;;;5025311;28;20080;-46
2023/12/28 03:47:42;;;;;;;127.15;56.45;;;17.30;68.50;;;;;;5031357;28;20499;-44
2023/12/28 03:50:08;;;;;;;129.00;57.40;;;17.20;68.50;;;;;;5024334;28;20164;-42
2023/12/28 03:52:34;;;;;;;129.45;57.63;;;17.30;68.50;;;;;;5024455;28;20049;-43
2023/12/28 03:55:00;;;;;;;128.52;57.33;;;17.20;68.60;;;;;;5025780;28;20047;-43
2023/12/28 03:57:25;;;;;;;129.45;57.38;;;17.20;68.50;;;;;;5027908;28;20173;-45
2023/12/28 03:59:51;;;;;;;127.57;57.00;;;17.20;68.60;;;;;;5025200;28;20037;-45
2023/12/28 04:02:17;;;;;;;127.53;57.15;;;17.20;68.70;;;;;;5029385;28;20054;-41
2023/12/28 04:04:42;;;;;;;127.30;57.17;;;17.20;68.70;;;;;;5028620;28;20696;-45
2023/12/28 04:07:08;;;;;;;127.47;56.40;;;17.20;68.60;;;;;;5031464;28;20045;-44
2023/12/28 04:09:34;;;;;;;128.13;56.63;;;17.20;68.60;;;;;;5033915;28;20419;-46
2023/12/28 04:12:00;;;;;;;127.90;57.03;;;17.20;68.70;;;;;;5030398;28;20048;-42
2023/12/28 04:14:26;;;;;;;126.65;56.92;;;17.20;68.60;;;;;;5024613;28;20038;-42
2023/12/28 04:16:51;;;;;;;127.75;56.88;;;17.20;68.60;;;;;;5027534;28;20044;-46
2023/12/28 04:19:17;;;;;;;127.85;57.40;;;17.20;68.70;;;;;;5021941;28;20033;-42
2023/12/28 04:21:44;;;;;;;127.95;57.33;;;17.20;68.60;;;;;;5028869;28;20045;-42
2023/12/28 04:24:10;;;;;;;128.00;57.53;;;17.10;68.60;;;;;;5023651;28;20096;-43
2023/12/28 04:26:36;;;;;;;127.53;56.90;;;17.10;69.60;;;;;;5027666;28;20073;-48
2023/12/28 04:29:02;;;;;;;125.82;56.20;;;17.10;68.80;;;;;;5029178;28;20034;-45
2023/12/28 04:31:27;;;;;;;128.02;56.80;;;17.10;68.80;;;;;;5031604;28;20495;-42
2023/12/28 04:33:53;;;;;;;128.32;57.17;;;17.10;68.80;;;;;;5029900;28;20081;-46
2023/12/28 04:36:19;;;;;;;127.03;56.70;;;17.10;68.70;;;;;;5031384;28;20042;-43
2023/12/28 04:38:44;;;;;;;127.60;56.85;;;17.10;68.80;;;;;;5031415;28;20605;-44
2023/12/28 04:41:11;;;;;;;128.45;57.33;;;17.10;68.80;;;;;;5024301;28;20123;-42
2023/12/28 04:43:38;;;;;;;127.00;56.53;;;17.00;68.80;;;;;;5031700;28;20065;-43
2023/12/28 04:46:06;;;;;;;129.05;57.03;;;17.00;68.90;;;;;;5028244;28;20044;-45
2023/12/28 04:48:32;;;;;;;128.77;57.50;;;17.00;68.90;;;;;;5036801;28;20136;-47
2023/12/28 04:50:58;;;;;;;128.02;56.72;;;17.00;68.90;;;;;;5029587;28;20610;-43
2023/12/28 04:53:24;;;;;;;128.45;57.20;;;17.00;69.00;;;;;;5031365;28;20104;-43
2023/12/28 04:55:49;;;;;;;127.68;57.10;;;17.00;68.90;;;;;;5029885;28;20504;-43
2023/12/28 04:58:15;;;;;;;127.95;57.20;;;17.00;69.00;;;;;;5032917;28;20051;-41
2023/12/28 05:00:40;;;;;;;127.47;56.85;;;17.00;69.00;;;;;;5026408;28;20160;-46
2023/12/28 05:03:06;;;;;;;127.82;56.92;;;16.90;69.00;;;;;;5027240;28;20129;-42
2023/12/28 05:05:32;;;;;;;127.65;56.75;;;16.90;69.00;;;;;;5028672;28;20113;-47
2023/12/28 05:07:58;;;;;;;128.00;57.10;;;17.00;69.00;;;;;;5034764;28;20030;-46
2023/12/28 05:10:24;;;;;;;128.35;57.15;;;17.00;69.00;;;;;;5025821;28;20041;-42
2023/12/28 05:12:49;;;;;;;128.43;57.05;;;17.00;68.90;;;;;;5028950;28;20034;-42
2023/12/28 05:15:15;;;;;;;127.65;57.13;;;16.90;68.90;;;;;;5031070;28;20642;-43
2023/12/28 05:17:41;;;;;;;127.18;56.78;;;16.90;68.90;;;;;;5027856;28;20048;-44
2023/12/28 05:20:07;;;;;;;127.40;56.72;;;16.90;68.90;;;;;;5028347;28;20281;-46
2023/12/28 05:22:33;;;;;;;128.00;57.38;;;16.90;69.00;;;;;;5032911;28;20107;-50
2023/12/28 05:24:58;;;;;;;127.30;57.20;;;16.90;69.00;;;;;;5032019;28;20045;-45
2023/12/28 05:27:24;;;;;;;129.07;57.25;;;16.90;69.10;;;;;;5028102;28;20167;-47
2023/12/28 05:29:50;;;;;;;128.43;57.00;;;16.90;69.20;;;;;;5030896;28;20061;-46
2023/12/28 05:32:16;;;;;;;129.27;57.38;;;16.90;69.30;;;;;;5031218;28;20045;-46
2023/12/28 05:34:41;;;;;;;127.80;56.85;;;16.80;69.30;;;;;;5028668;28;20029;-43
2023/12/28 05:37:07;;;;;;;126.70;56.55;;;16.90;69.20;;;;;;5034326;28;20128;-52
2023/12/28 05:39:33;;;;;;;127.93;56.83;;;16.80;69.20;;;;;;5029673;28;20041;-45
2023/12/28 05:41:59;;;;;;;129.40;57.08;;;16.80;69.00;;;;;;5027985;28;20053;-46
2023/12/28 05:44:24;;;;;;;127.65;56.67;;;16.80;69.10;;;;;;5034418;28;20112;-43
2023/12/28 05:46:50;;;;;;;129.00;57.13;;;16.80;69.30;;;;;;5031624;28;20085;-42
2023/12/28 05:49:16;;;;;;;128.27;56.15;;;16.80;69.30;;;;;;5030516;28;20045;-44
2023/12/28 05:51:42;;;;;;;128.45;57.08;;;16.80;69.30;;;;;;5029192;28;20052;-43
2023/12/28 05:54:08;;;;;;;129.77;56.92;;;16.80;69.30;;;;;;5030628;28;20036;-44
2023/12/28 05:56:34;;;;;;;126.80;57.05;;;16.80;69.20;;;;;;5029139;28;20045;-44
2023/12/28 05:59:00;;;;;;;129.38;56.90;;;16.80;69.40;;;;;;5027220;28;20087;-43
2023/12/28 06:01:27;;;;;;;127.22;56.58;;;16.70;69.20;;;;;;5033622;28;21071;-44
2023/12/28 06:03:53;;;;;;;128.07;57.30;;;16.70;69.30;;;;;;5028427;28;20095;-45
2023/12/28 06:06:20;;;;;;;127.80;56.50;;;16.70;69.40;;;;;;5031189;28;20124;-43
2023/12/28 06:08:46;;;;;;;130.10;57.45;;;16.70;69.50;;;;;;5031971;28;20049;-43
2023/12/28 06:11:11;;;;;;;130.27;56.65;;;16.70;69.50;;;;;;5025381;28;20052;-42
2023/12/28 06:13:37;;;;;;;129.23;56.95;;;16.70;69.60;;;;;;5025935;28;20038;-42
2023/12/28 06:16:03;;;;;;;128.52;57.25;;;16.70;69.60;;;;;;5028688;28;20511;-44
2023/12/28 06:18:29;;;;;;;127.57;56.53;;;16.70;69.60;;;;;;5025771;28;20539;-42
2023/12/28 06:20:55;;;;;;;127.38;56.67;;;16.70;69.60;;;;;;5025933;28;20059;-41
2023/12/28 06:23:20;;;;;;;128.10;56.97;;;16.70;69.60;;;;;;5027691;28;21389;-43
2023/12/28 06:25:46;;;;;;;126.43;56.50;;;16.70;69.70;;;;;;5027458;28;20757;-47
2023/12/28 06:28:12;;;;;;;128.70;57.15;;;16.60;69.60;;;;;;5026943;28;22241;-43
2023/12/28 06:30:39;;;;;;;129.43;56.95;;;16.60;69.50;;;;;;5030877;28;20107;-45
2023/12/28 06:33:05;;;;;;;129.73;57.00;;;16.70;69.70;;;;;;5025168;28;20495;-43
2023/12/28 06:35:31;;;;;;;127.28;56.50;;;16.60;69.60;;;;;;5029039;28;21503;-43
2023/12/28 06:37:56;;;;;;;128.73;57.40;;;16.60;69.50;;;;;;5026701;28;20045;-44
2023/12/28 06:40:22;;;;;;;127.05;56.47;;;16.60;69.60;;;;;;5027491;28;20539;-42
2023/12/28 06:42:48;;;;;;;127.45;57.00;;;16.60;69.60;;;;;;5027829;28;20040;-45
2023/12/28 06:45:14;;;;;;;127.07;56.22;;;16.60;69.60;;;;;;5025179;28;20045;-44
2023/12/28 06:47:39;;;;;;;127.72;56.70;;;16.60;69.60;;;;;;5031245;28;20053;-43
2023/12/28 06:50:06;;;;;;;126.90;56.60;;;16.60;69.60;;;;;;5028741;28;20050;-42
2023/12/28 06:52:31;;;;;;;127.32;56.90;;;16.60;69.70;;;;;;5023409;28;20153;-41
2023/12/28 06:54:57;;;;;;;127.80;56.95;;;16.60;69.80;;;;;;5024369;28;20069;-44
2023/12/28 06:57:23;;;;;;;126.50;56.50;;;16.50;69.70;;;;;;5030590;28;20080;-41
2023/12/28 06:59:48;;;;;;;126.95;57.08;;;16.50;69.80;;;;;;5028305;28;20602;-44
2023/12/28 07:02:14;;;;;;;127.68;56.50;;;16.50;69.80;;;;;;5026547;28;21198;-44
2023/12/28 07:04:40;;;;;;;128.45;56.42;;;16.50;69.80;;;;;;5027037;28;20042;-43
2023/12/28 07:07:05;;;;;;;128.23;56.88;;;16.50;69.90;;;;;;5033913;28;20056;-42
2023/12/28 07:09:31;;;;;;;127.28;56.72;;;16.50;69.90;;;;;;5028910;28;20041;-44
2023/12/28 07:11:56;;;;;;;128.55;57.28;;;16.50;69.90;;;;;;5026964;28;20046;-44
2023/12/28 07:14:22;;;;;;;127.65;56.90;;;16.50;70.00;;;;;;5027232;28;20037;-46
2023/12/28 07:16:48;;;;;;;129.27;56.97;;;16.50;70.00;;;;;;5027039;28;20116;-43
2023/12/28 07:19:13;;;;;;;126.68;56.53;;;16.50;70.00;;;;;;5027985;28;20481;-47
2023/12/28 07:21:39;;;;;;;131.00;56.88;;;16.50;69.90;;;;;;5029568;28;20051;-45
2023/12/28 07:24:05;;;;;;;129.52;56.83;;;16.50;70.00;;;;;;5029879;28;20696;-45
2023/12/28 07:26:31;;;;;;;127.68;56.78;;;16.50;69.90;;;;;;5024880;28;21176;-45
2023/12/28 07:28:56;;;;;;;128.77;57.33;;;16.50;70.00;;;;;;5025003;28;20041;-47
2023/12/28 07:31:26;;;;;;;131.63;57.38;;;16.40;70.00;;;;;;5027507;28;20046;-44
2023/12/28 07:33:52;;;;;;;128.98;56.80;;;16.50;70.00;;;;;;5032066;28;20212;-42
2023/12/28 07:36:17;;;;;;;128.68;56.72;;;16.50;70.00;;;;;;5031398;28;20707;-44
2023/12/28 07:38:44;;;;;;;129.02;56.55;;;16.50;70.00;;;;;;5030538;28;20041;-46
2023/12/28 07:41:09;;;;;;;127.10;56.17;;;16.40;70.00;;;;;;5028942;28;20096;-44
2023/12/28 07:43:36;;;;;;;128.75;57.25;;;16.50;70.10;;;;;;5023499;28;20706;-46
2023/12/28 07:46:02;;;;;;;127.07;56.13;;;16.40;70.00;;;;;;5029776;28;20042;-42
2023/12/28 07:48:30;;;;;;;128.63;56.08;;;16.40;70.00;;;;;;5035582;28;20038;-48
2023/12/28 07:50:56;;;;;;;128.38;57.28;;;16.40;70.00;;;;;;5025155;28;20046;-45
2023/12/28 07:53:22;;;;;;;128.85;56.80;;;16.40;70.20;;;;;;5026501;28;20116;-43
2023/12/28 07:55:48;;;;;;;128.88;57.13;;;16.40;70.20;;;;;;5027125;28;20053;-42
2023/12/28 07:58:14;;;;;;;132.95;56.95;;;16.40;70.10;;;;;;5023147;28;20034;-42
2023/12/28 08:00:40;;;;;;;133.90;56.90;;;16.50;70.20;;;;;;5026964;28;20041;-43
2023/12/28 08:03:05;;;;;;;128.85;56.47;;;16.40;70.00;;;;;;5030677;28;21925;-44
2023/12/28 08:05:31;;;;;;;127.22;56.15;;;16.50;70.20;;;;;;5033859;28;20048;-43
2023/12/28 08:07:57;;;;;;;128.55;56.33;;;16.40;70.20;;;;;;5035305;28;20038;-43
2023/12/28 08:10:22;;;;;;;128.88;56.67;;;16.40;70.30;;;;;;5028405;28;20042;-43
2023/12/28 08:12:51;;;;;;;130.07;56.55;;;16.40;70.30;;;;;;5026723;28;20200;-42
2023/12/28 08:15:18;;;;;;;133.55;56.60;;;16.50;70.30;;;;;;5025413;28;20461;-49
2023/12/28 08:17:44;;;;;;;131.05;56.75;;;16.40;70.20;;;;;;5030251;28;20904;-42
2023/12/28 08:20:09;;;;;;;131.88;56.92;;;16.40;71.10;;;;;;5031772;28;20037;-46
2023/12/28 08:22:35;;;;;;;128.88;56.83;;;16.40;70.20;;;;;;5033174;28;20971;-46
2023/12/28 08:25:00;;;;;;;128.32;56.90;;;16.40;70.20;;;;;;5038547;28;20049;-42
2023/12/28 08:27:26;;;;;;;131.15;56.63;;;16.50;70.40;;;;;;5037176;28;20041;-42
2023/12/28 08:29:52;;;;;;;131.35;57.10;;;16.50;70.30;;;;;;5038575;28;20041;-42
2023/12/28 08:32:17;;;;;;;129.32;56.88;;;16.40;70.50;;;;;;5040883;28;20098;-43
2023/12/28 08:34:43;;;;;;;132.15;57.13;;;16.40;70.80;;;;;;5038242;28;20112;-41
2023/12/28 08:37:10;;;;;;;128.63;56.60;;;16.40;71.50;;;;;;5033111;28;20048;-46
2023/12/28 08:39:36;;;;;;;130.30;56.83;;;16.40;70.80;;;;;;5038274;28;20036;-44
2023/12/28 08:42:01;;;;;;;129.65;57.03;;;16.40;70.90;;;;;;5040864;28;20447;-43
2023/12/28 08:44:27;;;;;;;130.05;57.13;;;16.50;71.30;;;;;;5037718;28;20592;-42
2023/12/28 08:46:53;;;;;;;130.80;56.72;;;16.60;71.40;;;;;;5039676;28;20409;-42
2023/12/28 08:49:18;;;;;;;131.65;57.63;;;16.70;70.90;;;;;;5039483;28;20040;-41
2023/12/28 08:51:44;;;;;;;132.40;57.80;;;16.70;70.60;;;;;;5034580;28;20037;-41
2023/12/28 08:54:09;;;;;;;130.82;57.50;;;16.80;70.60;;;;;;5033504;28;20033;-41
2023/12/28 08:56:35;;;;;;;131.50;56.78;;;16.80;70.40;;;;;;5039439;28;20463;-41
2023/12/28 08:59:01;;;;;;;130.60;57.25;;;16.70;70.30;;;;;;5018908;28;20498;-39
2023/12/28 09:01:29;;;;;;;135.27;58.28;;;16.80;70.50;;;;;;5036850;28;20272;-43
2023/12/28 09:03:55;;;;;;;132.02;57.92;;;16.80;71.10;;;;;;5038338;28;20172;-39
2023/12/28 09:06:22;;;;;;;137.90;57.78;;;16.90;71.30;;;;;;5032050;28;20056;-38
2023/12/28 09:08:50;;;;;;;134.23;58.55;;;16.90;71.00;;;;;;5031941;28;20179;-39
2023/12/28 09:11:16;;;;;;;134.20;57.63;;;16.90;71.20;;;;;;5033966;28;20090;-41
2023/12/28 09:13:42;;;;;;;136.05;58.35;;;16.90;71.00;;;;;;5037125;28;20081;-40
2023/12/28 09:16:13;;;;;;;138.77;58.47;;;17.00;70.70;;;;;;5038752;28;20073;-38
2023/12/28 09:18:39;;;;;;;132.85;58.15;;;17.00;70.70;;;;;;5033615;28;20034;-45
2023/12/28 09:21:07;;;;;;;136.73;58.10;;;17.00;71.10;;;;;;5037441;28;20069;-47
2023/12/28 09:23:33;;;;;;;133.43;57.38;;;17.00;71.00;;;;;;5039670;28;20061;-45
2023/12/28 09:26:00;;;;;;;134.13;57.58;;;16.90;71.30;;;;;;5033697;28;20100;-43
2023/12/28 09:28:26;;;;;;;133.15;56.92;;;16.90;71.80;;;;;;5042064;28;20079;-42
2023/12/28 09:30:52;;;;;;;128.63;56.42;;;16.90;71.90;;;;;;5040626;28;20509;-48
2023/12/28 09:33:17;;;;;;;131.10;57.05;;;16.80;71.70;;;;;;5041058;28;20045;-46
2023/12/28 09:35:43;;;;;;;133.93;57.70;;;16.80;71.40;;;;;;5037705;28;20132;-46
2023/12/28 09:38:09;;;;;;;132.57;57.50;;;16.80;71.70;;;;;;5036358;28;20535;-47
2023/12/28 09:40:38;;;;;;;135.52;58.65;;;16.80;72.20;;;;;;5034305;28;20749;-44
2023/12/28 09:43:15;;;;;;;133.60;58.17;;;16.80;72.40;;;;;;5036536;28;20073;-37
2023/12/28 09:45:41;;;;;;;143.60;59.88;;;16.90;72.90;;;;;;5032181;28;20049;-47
2023/12/28 09:48:07;;;;;;;145.60;59.55;;;16.90;73.40;;;;;;5036609;28;20064;-48
2023/12/28 09:50:32;;;;;;;144.15;59.65;;;17.00;73.80;;;;;;5034377;28;20081;-40
2023/12/28 09:52:58;;;;;;;142.10;59.38;;;17.00;73.30;;;;;;5036103;28;20188;-46
2023/12/28 09:55:27;;;;;;;141.20;59.60;;;17.00;73.30;;;;;;5035556;28;20048;-40
2023/12/28 09:57:54;;;;;;;144.95;59.47;;;17.00;73.30;;;;;;5040938;28;20029;-41
2023/12/28 10:00:20;;;;;;;141.23;59.42;;;17.00;73.20;;;;;;5039075;28;20073;-43
2023/12/28 10:02:46;;;;;;;140.30;59.85;;;17.00;73.10;;;;;;5041475;28;20535;-41
2023/12/28 10:05:15;;;;;;;147.82;59.35;;;17.00;73.20;;;;;;5035127;28;20037;-41
2023/12/28 10:07:43;;;;;;;143.77;60.75;;;17.00;73.10;;;;;;5024830;28;20527;-45
2023/12/28 10:10:09;;;;;;;144.90;60.08;;;17.00;73.20;;;;;;5028845;28;20033;-44
2023/12/28 10:12:35;;;;;;;142.10;60.00;;;17.00;73.10;;;;;;5032989;28;20118;-45
2023/12/28 10:15:01;;;;;;;139.70;59.33;;;17.10;73.00;;;;;;5036299;28;20046;-48
2023/12/28 10:17:27;;;;;;;137.85;59.10;;;17.00;73.10;;;;;;5030053;28;20052;-46
2023/12/28 10:19:53;;;;;;;142.45;60.28;;;17.00;73.20;;;;;;5033442;28;20424;-46
2023/12/28 10:22:19;;;;;;;143.77;60.92;;;17.10;73.40;;;;;;5038274;28;20042;-46
2023/12/28 10:24:45;;;;;;;138.82;59.45;;;17.10;73.50;;;;;;5036801;28;20098;-44
2023/12/28 10:27:14;;;;;;;148.50;60.72;;;17.00;73.20;;;;;;5035643;28;20061;-45
2023/12/28 10:29:39;;;;;;;138.70;59.78;;;17.00;73.60;;;;;;5035519;28;20120;-49
2023/12/28 10:32:05;;;;;;;137.82;59.38;;;17.00;73.70;;;;;;5034695;28;20591;-44
2023/12/28 10:34:31;;;;;;;136.80;59.55;;;17.00;73.60;;;;;;5033209;28;20075;-45
2023/12/28 10:36:59;;;;;;;139.70;60.33;;;17.00;73.90;;;;;;5028158;28;20833;-46
2023/12/28 10:39:25;;;;;;;135.18;59.30;;;17.00;73.70;;;;;;5028751;28;20088;-44
2023/12/28 10:41:55;;;;;;;140.95;59.47;;;17.00;73.70;;;;;;5038435;28;20052;-46
2023/12/28 10:44:26;;;;;;;144.18;58.72;;;17.10;73.70;;;;;;5035495;28;20135;-46
2023/12/28 10:47:01;;;;;;;138.63;59.40;;;17.10;73.50;;;;;;5030321;28;20033;-44
2023/12/28 10:49:27;;;;;;;144.20;59.85;;;17.10;74.00;;;;;;5034577;28;20099;-44
2023/12/28 10:51:54;;;;;;;140.23;58.63;;;17.20;74.30;;;;;;5033836;28;20668;-44
2023/12/28 10:54:54;;;;;;;139.18;59.28;;;17.20;74.10;;;;;;5030890;28;20045;-46
2023/12/28 10:57:30;;;;;;;139.18;60.38;;;17.30;74.10;;;;;;5035274;28;20571;-44
2023/12/28 11:00:10;;;;;;;137.23;58.83;;;17.30;73.70;;;;;;5034611;28;20037;-44
2023/12/28 11:02:41;;;;;;;140.07;58.83;;;17.40;73.60;;;;;;5037996;28;20057;-44
2023/12/28 11:05:07;;;;;;;141.60;59.67;;;17.50;73.60;;;;;;5036029;28;20049;-44
2023/12/28 11:07:35;;;;;;;140.45;59.38;;;17.60;73.10;;;;;;5040929;28;20056;-45
2023/12/28 11:10:04;;;;;;;140.00;60.13;;;17.60;72.90;;;;;;5025552;28;20573;-50
2023/12/28 11:12:31;;;;;;;135.13;58.47;;;17.60;72.70;;;;;;5031060;28;20041;-45
2023/12/28 11:14:57;;;;;;;139.05;58.97;;;17.60;72.60;;;;;;5032258;28;20921;-47
2023/12/28 11:17:24;;;;;;;134.50;58.22;;;17.60;72.20;;;;;;5033583;28;20592;-44
2023/12/28 11:19:54;;;;;;;138.73;59.42;;;17.50;72.50;;;;;;5035183;28;20763;-43
2023/12/28 11:22:22;;;;;;;137.02;59.13;;;17.50;72.40;;;;;;5035277;28;20065;-44
2023/12/28 11:24:47;;;;;;;135.90;58.83;;;17.60;72.40;;;;;;5030787;28;20985;-45
2023/12/28 11:27:13;;;;;;;136.05;59.13;;;17.60;72.50;;;;;;5036909;28;20893;-44
2023/12/28 11:29:41;;;;;;;141.13;59.35;;;17.60;72.40;;;;;;5036993;28;20598;-44
2023/12/28 11:32:08;;;;;;;145.63;59.75;;;17.60;72.40;;;;;;5035133;28;20038;-43
2023/12/28 11:34:34;;;;;;;137.98;59.30;;;17.60;72.20;;;;;;5031441;28;20120;-44
2023/12/28 11:37:14;;;;;;;140.40;59.40;;;17.70;72.50;;;;;;5029631;28;20485;-49
2023/12/28 11:39:44;;;;;;;140.23;59.58;;;17.70;72.10;;;;;;5031693;28;20152;-43
2023/12/28 11:42:10;;;;;;;135.85;58.55;;;17.70;71.90;;;;;;5031375;28;20103;-43
2023/12/28 11:44:41;;;;;;;142.00;59.75;;;17.60;71.90;;;;;;5042262;28;20115;-46
2023/12/28 11:47:13;;;;;;;;;;;17.60;71.90;;;;;;5040522;28;20132;-47
2023/12/28 11:49:45;;;;;;;137.05;59.03;;;17.70;71.90;;;;;;5044061;28;19917;-45
2023/12/28 11:52:26;;;;;;;140.07;59.40;;;17.70;71.90;;;;;;5038737;28;20042;-43
2023/12/28 11:54:51;;;;;;;139.45;59.35;;;17.80;72.00;;;;;;5038953;28;20881;-45
2023/12/28 11:57:17;;;;;;;140.18;58.97;;;17.80;72.40;;;;;;5041307;28;20844;-46
2023/12/28 11:59:43;;;;;;;137.88;59.55;;;17.80;72.00;;;;;;5039822;28;20036;-42
2023/12/28 12:02:10;;;;;;;139.40;59.83;;;17.80;71.90;;;;;;5033072;28;20041;-44
2023/12/28 12:04:36;;;;;;;138.52;59.20;;;17.70;71.90;;;;;;5038586;28;20037;-40
2023/12/28 12:07:03;;;;;;;136.38;59.33;;;17.80;71.80;;;;;;5042752;28;20104;-45
2023/12/28 12:09:34;;;;;;;136.70;59.78;;;17.70;71.80;;;;;;5038226;28;20148;-42
2023/12/28 12:12:03;;;;;;;139.27;59.40;;;17.70;71.60;;;;;;5041567;28;20050;-50
2023/12/28 12:14:30;;;;;;;136.43;58.90;;;17.80;72.10;;;;;;5040184;28;20268;-43